Time;durP1;ratioP1;P1;durP2;ratioP2;P2;SDS_P1;SDS_P2;PMS_P1;PMS_P2;Temp;Humidity;BMP_temperature;BMP_pressure;BME280_temperature;BME280_humidity;BME280_pressure;Samples;Min_cycle;Max_cycle;Signal;HPM_P1;HPM_P2
2022/02/06 00:02:15;;;;;;;;;10.25;10.00;;;;;7.82;44.65;98918.88;6236252;28;96619;-72
2022/02/06 00:05:20;;;;;;;;;10.00;10.00;;;;;7.85;44.49;98917.66;6235568;28;96943;-74
2022/02/06 00:08:23;;;;;;;;;9.60;8.60;;;;;7.86;44.33;98907.75;6239007;28;97459;-72
2022/02/06 00:11:26;;;;;;;;;10.80;9.00;;;;;7.83;44.45;98917.00;6236413;28;97460;-73
2022/02/06 00:14:30;;;;;;;;;9.00;9.00;;;;;7.73;44.31;98906.66;6238675;28;97150;-73
2022/02/06 00:17:35;;;;;;;;;13.00;11.80;;;;;7.47;44.42;98873.59;6237955;28;97835;-72
2022/02/06 00:20:48;;;;;;;;;11.40;10.00;;;;;7.81;44.54;98902.97;6237276;27;96505;-73
2022/02/06 00:23:55;;;;;;;;;9.25;8.00;;;;;7.73;44.48;98898.63;6220854;28;99433;-73
2022/02/06 00:27:03;;;;;;;;;12.40;9.80;;;;;7.72;44.48;98880.06;6218325;28;98990;-72
2022/02/06 00:30:17;;;;;;;;;11.40;10.40;;;;;7.70;44.54;98876.75;6226274;28;98868;-73
2022/02/06 00:33:35;;;;;;;;;9.20;8.20;;;;;7.63;44.40;98884.75;6219537;28;97638;-73
2022/02/06 00:40:00;;;;;;;;;10.00;8.00;;;;;7.36;44.46;98875.00;6230441;28;96491;-74
2022/02/06 00:43:03;;;;;;;;;8.00;7.25;;;;;7.23;44.67;98869.59;6212741;28;97602;-74
2022/02/06 00:46:08;;;;;;;;;9.80;7.80;;;;;7.11;44.78;98872.00;6212256;28;96713;-74
2022/02/06 00:49:15;;;;;;;;;9.00;8.00;;;;;7.35;44.64;98865.28;6212000;28;97955;-73
2022/02/06 00:52:25;;;;;;;;;6.50;6.00;;;;;7.35;44.68;98868.81;6212078;28;96915;-72
2022/02/06 00:55:28;;;;;;;;;8.60;8.00;;;;;7.29;44.55;98858.88;6214674;28;98539;-73
2022/02/06 00:58:32;;;;;;;;;8.00;7.00;;;;;7.27;44.57;98858.28;6215809;28;99544;-73
2022/02/06 01:01:41;;;;;;;;;9.00;8.00;;;;;7.23;44.62;98853.50;6237958;28;99526;-74
2022/02/06 01:04:44;;;;;;;;;9.00;8.00;;;;;7.26;44.23;98845.88;6239271;27;97605;-72
2022/02/06 01:07:50;;;;;;;;;6.80;6.00;;;;;7.08;44.28;98805.41;6219346;28;97410;-72
2022/02/06 01:10:54;;;;;;;;;7.00;7.00;;;;;7.12;44.23;98813.88;6219459;28;96633;-71
2022/02/06 01:14:06;;;;;;;;;7.00;6.00;;;;;7.24;44.35;98831.84;6219424;28;96405;-73
2022/02/06 01:17:21;;;;;;;;;8.00;6.40;;;;;7.28;44.30;98826.91;6234106;27;96631;-74
2022/02/06 01:20:30;;;;;;;;;7.00;6.60;;;;;7.24;44.31;98825.66;6218908;28;97420;-73
2022/02/06 01:23:45;;;;;;;;;6.50;6.00;;;;;7.15;44.21;98794.69;6200201;28;96706;-72
2022/02/06 01:26:52;;;;;;;;;9.00;7.00;;;;;7.38;43.93;98804.03;6217121;28;96966;-74
2022/02/06 01:30:00;;;;;;;;;8.00;7.00;;;;;7.32;44.20;98806.72;6242684;28;96873;-73
2022/02/06 01:33:10;;;;;;;;;7.00;5.80;;;;;7.29;43.43;98804.41;6226059;28;97508;-74
2022/02/06 01:36:23;;;;;;;;;5.33;5.33;;;;;7.22;44.14;98798.22;6241590;28;97900;-72
2022/02/06 01:39:43;;;;;;;;;5.00;5.00;;;;;7.31;43.79;98792.47;6215372;28;97040;-73
2022/02/06 01:42:57;;;;;;;;;7.00;6.60;;;;;7.35;43.61;98777.63;6214411;28;98421;-74
2022/02/06 02:03:03;;;;;;;;;4.00;4.00;;;;;7.84;41.87;98750.41;6240940;28;98917;-73
2022/02/06 02:06:49;;;;;;;;;7.00;5.00;;;;;7.83;41.83;98739.88;6244368;28;97676;-72
2022/02/06 02:10:15;;;;;;;;;6.60;6.00;;;;;7.91;41.73;98738.84;6241056;28;97017;-74
2022/02/06 02:13:40;;;;;;;;;4.00;4.00;;;;;7.92;41.67;98724.38;6224613;28;98009;-74
2022/02/06 02:17:09;;;;;;;;;5.00;5.00;;;;;7.76;41.73;98707.69;6214218;28;97701;-72
2022/02/06 02:20:41;;;;;;;;;6.00;5.00;;;;;7.87;41.50;98713.47;6230470;28;97990;-73
2022/02/06 02:27:16;;;;;;;;;5.60;5.00;;;;;8.00;41.83;98697.34;6238408;28;99701;-73
2022/02/06 02:47:13;;;;;;;;;5.80;4.80;;;;;8.04;41.51;98669.84;6200145;28;98391;-73
2022/02/06 02:50:20;;;;;;;;;5.00;5.00;;;;;8.06;41.30;98669.66;6216596;28;98752;-74
2022/02/06 02:53:28;;;;;;;;;4.60;4.60;;;;;7.90;41.05;98652.13;6216918;28;97073;-72
2022/02/06 02:56:41;;;;;;;;;5.20;4.00;;;;;8.01;41.11;98664.91;6219662;28;96373;-73
2022/02/06 02:59:57;;;;;;;;;3.00;3.00;;;;;7.78;41.32;98646.56;6228029;28;96490;-72
2022/02/06 03:03:09;;;;;;;;;4.00;4.00;;;;;7.93;41.26;98658.94;6239290;28;97467;-74
2022/02/06 03:06:13;;;;;;;;;7.00;6.00;;;;;8.02;41.07;98654.97;6216031;28;97139;-74
2022/02/06 03:09:18;;;;;;;;;4.00;4.00;;;;;8.12;41.14;98661.56;6216701;28;97901;-74
2022/02/06 03:12:26;;;;;;;;;5.00;5.00;;;;;8.00;41.26;98646.31;6215444;28;97438;-74
2022/02/06 03:15:40;;;;;;;;;5.00;4.00;;;;;8.10;41.11;98662.81;6215317;28;96450;-74
2022/02/06 03:18:48;;;;;;;;;3.20;3.00;;;;;7.97;41.38;98650.25;6239815;28;97414;-74
2022/02/06 03:21:52;;;;;;;;;4.75;4.00;;;;;8.21;41.07;98646.84;6222919;28;96846;-73
2022/02/06 03:25:05;;;;;;;;;4.00;4.00;;;;;8.17;41.03;98642.13;6239267;28;97433;-74
2022/02/06 03:28:10;;;;;;;;;5.00;4.00;;;;;8.15;41.26;98646.91;6225042;27;98694;-74
2022/02/06 03:31:13;;;;;;;;;4.00;4.00;;;;;8.04;41.34;98615.34;6197333;28;96729;-74
2022/02/06 03:34:17;;;;;;;;;4.00;3.25;;;;;8.17;41.39;98617.97;6213236;28;98608;-74
2022/02/06 03:37:20;;;;;;;;;4.50;4.50;;;;;8.16;41.48;98616.34;6212544;28;97865;-72
2022/02/06 03:40:27;;;;;;;;;5.00;5.00;;;;;8.10;41.73;98635.97;6217375;28;97376;-73
2022/02/06 03:43:38;;;;;;;;;4.00;3.00;;;;;8.12;42.05;98628.50;6238562;28;97524;-72
2022/02/06 03:46:50;;;;;;;;;4.00;4.00;;;;;8.10;42.08;98619.88;6239189;28;97036;-73
2022/02/06 03:49:56;;;;;;;;;5.00;5.00;;;;;8.19;41.96;98610.53;6238879;28;96932;-73
2022/02/06 03:53:00;;;;;;;;;5.00;5.00;;;;;8.22;41.96;98612.78;6243658;27;96820;-72
2022/02/06 03:56:04;;;;;;;;;4.00;4.00;;;;;8.21;42.14;98603.88;6241875;28;98364;-71
2022/02/06 03:59:09;;;;;;;;;5.40;4.60;;;;;8.25;41.84;98597.06;6215862;28;96535;-72
2022/02/06 04:02:12;;;;;;;;;4.00;4.00;;;;;8.24;42.24;98590.06;6212944;28;97081;-73
2022/02/06 04:05:16;;;;;;;;;4.00;4.00;;;;;8.32;41.76;98591.69;6214888;28;96572;-72
2022/02/06 04:08:20;;;;;;;;;6.20;5.00;;;;;8.17;42.16;98591.94;6221031;28;97691;-74
2022/02/06 04:11:33;;;;;;;;;3.00;3.00;;;;;8.07;42.16;98572.75;6238845;28;97600;-73
2022/02/06 04:14:52;;;;;;;;;4.00;3.00;;;;;8.21;42.23;98566.28;6234576;28;98150;-72
2022/02/06 04:18:08;;;;;;;;;4.25;4.00;;;;;7.89;42.17;98535.06;6215794;28;96432;-72
2022/02/06 04:21:13;;;;;;;;;6.80;4.80;;;;;8.14;42.31;98556.63;6211916;28;96588;-73
2022/02/06 04:24:17;;;;;;;;;7.00;5.00;;;;;8.14;42.27;98537.84;6221384;28;97930;-72
2022/02/06 04:27:20;;;;;;;;;4.60;4.00;;;;;8.19;42.20;98543.41;6241474;28;97181;-71
2022/02/06 04:30:25;;;;;;;;;5.00;4.50;;;;;8.14;42.28;98549.41;6219274;28;97715;-72
2022/02/06 04:33:28;;;;;;;;;5.60;4.20;;;;;8.37;42.09;98542.69;6240094;28;96961;-73
2022/02/06 04:36:38;;;;;;;;;4.00;4.00;;;;;8.40;42.04;98532.38;6219510;28;98606;-72
2022/02/06 04:47:14;;;;;;;;;4.00;4.00;;;;;8.20;42.64;98524.38;6250335;27;97684;-71
2022/02/06 04:53:54;;;;;;;;;4.00;3.00;;;;;8.17;42.93;98515.91;6261169;27;97529;-71
2022/02/06 05:24:28;;;;;;;;;4.00;4.00;;;;;8.15;44.47;98526.91;6248931;27;96784;-73
2022/02/06 05:30:52;;;;;;;;;3.00;3.00;;;;;8.04;45.08;98503.41;6249820;27;97008;-72
2022/02/06 05:33:56;;;;;;;;;3.00;3.00;;;;;8.25;44.73;98494.19;6247986;27;96655;-73
2022/02/06 05:37:00;;;;;;;;;3.75;3.25;;;;;8.24;44.77;98490.69;6240938;27;97469;-73
2022/02/06 05:40:04;;;;;;;;;3.00;3.00;;;;;8.30;44.69;98493.59;6232612;28;97052;-71
2022/02/06 05:43:07;;;;;;;;;4.20;4.00;;;;;8.44;44.36;98487.06;6234006;27;96539;-72
2022/02/06 05:46:11;;;;;;;;;3.00;3.00;;;;;8.46;44.18;98476.91;6228055;27;97492;-72
2022/02/06 05:49:15;;;;;;;;;4.00;4.00;;;;;8.40;44.23;98481.31;6258091;27;97473;-73
2022/02/06 05:52:22;;;;;;;;;4.00;3.00;;;;;8.42;44.21;98479.22;6252802;27;96708;-73
2022/02/06 05:55:25;;;;;;;;;4.25;4.25;;;;;8.57;44.00;98470.84;6241454;28;96422;-73
2022/02/06 05:58:29;;;;;;;;;4.00;4.00;;;;;8.60;44.02;98470.44;6225610;28;100019;-72
2022/02/06 06:01:32;;;;;;;;;6.00;5.00;;;;;8.54;44.07;98460.56;6240700;27;96980;-72
2022/02/06 06:04:37;;;;;;;;;3.00;3.00;;;;;8.53;44.14;98459.72;6236139;28;98009;-74
2022/02/06 06:07:42;;;;;;;;;4.00;4.00;;;;;8.55;44.10;98460.31;6215502;28;97723;-74
2022/02/06 06:10:46;;;;;;;;;4.00;4.00;;;;;8.53;44.13;98454.34;6231695;27;97234;-74
2022/02/06 06:13:49;;;;;;;;;4.00;4.00;;;;;8.57;44.07;98460.94;6218725;28;97454;-73
2022/02/06 06:16:52;;;;;;;;;4.60;4.00;;;;;8.50;44.21;98443.22;6230714;27;97046;-73
2022/02/06 06:19:57;;;;;;;;;4.00;3.00;;;;;8.44;44.15;98426.13;6236554;28;96865;-72
2022/02/06 06:23:00;;;;;;;;;5.00;4.00;;;;;8.56;43.94;98439.66;6234665;27;96543;-72
2022/02/06 06:26:04;;;;;;;;;4.00;4.00;;;;;8.62;43.74;98438.78;6216751;28;97418;-73
2022/02/06 06:29:07;;;;;;;;;4.00;4.00;;;;;8.47;43.97;98432.91;6214272;28;97161;-72
2022/02/06 06:32:10;;;;;;;;;4.00;4.00;;;;;8.48;43.99;98437.25;6215982;28;96778;-72
2022/02/06 06:35:16;;;;;;;;;4.00;4.00;;;;;8.25;44.35;98422.53;6213704;28;99472;-73
2022/02/06 06:38:19;;;;;;;;;4.40;4.00;;;;;8.49;43.76;98428.97;6232893;28;96581;-73
2022/02/06 06:41:23;;;;;;;;;2.60;2.60;;;;;8.57;44.07;98419.81;6240569;28;96453;-73
2022/02/06 06:44:27;;;;;;;;;5.00;4.60;;;;;8.60;43.75;98416.69;6243207;27;96382;-72
2022/02/06 06:47:30;;;;;;;;;4.00;3.20;;;;;8.60;43.60;98417.50;6225036;28;98556;-71
2022/02/06 06:50:35;;;;;;;;;5.00;5.00;;;;;8.37;43.49;98360.06;6229115;27;96750;-73
2022/02/06 06:53:42;;;;;;;;;5.25;5.00;;;;;8.80;43.49;98416.47;6215596;27;96489;-73
2022/02/06 06:56:52;;;;;;;;;5.40;5.00;;;;;8.84;43.12;98417.72;6218300;28;96547;-72
2022/02/06 07:00:20;;;;;;;;;3.60;3.60;;;;;8.85;42.81;98403.19;6224152;27;97440;-72
2022/02/06 07:03:24;;;;;;;;;6.00;5.00;;;;;8.91;43.01;98413.91;6227899;27;96942;-73
2022/02/06 07:06:28;;;;;;;;;4.00;4.00;;;;;8.94;42.96;98412.63;6239575;28;99525;-72
2022/02/06 07:09:33;;;;;;;;;5.50;5.00;;;;;9.23;42.48;98397.63;6231689;28;98328;-72
2022/02/06 07:12:36;;;;;;;;;5.00;4.50;;;;;9.41;41.83;98403.00;6228324;28;97347;-74
2022/02/06 07:15:39;;;;;;;;;4.40;4.00;;;;;9.39;41.29;98389.75;6236702;27;97482;-72
2022/02/06 07:18:43;;;;;;;;;4.00;4.00;;;;;9.40;41.65;98388.72;6224146;28;96602;-72
2022/02/06 07:21:47;;;;;;;;;5.00;5.00;;;;;9.41;41.36;98376.09;6220764;28;97746;-73
2022/02/06 07:24:53;;;;;;;;;6.40;5.00;;;;;9.73;41.35;98384.75;6216327;28;96621;-73
2022/02/06 07:27:56;;;;;;;;;5.25;5.00;;;;;10.09;40.79;98373.88;6222447;28;97067;-73
2022/02/06 07:31:00;;;;;;;;;5.00;5.00;;;;;10.83;39.06;98367.06;6225412;28;96666;-73
2022/02/06 07:34:03;;;;;;;;;4.00;3.60;;;;;12.01;36.80;98370.00;6237170;28;96902;-74
2022/02/06 07:37:08;;;;;;;;;4.00;4.00;;;;;11.98;36.09;98335.34;6204458;28;97573;-73
2022/02/06 07:40:12;;;;;;;;;6.00;5.00;;;;;12.45;35.82;98354.78;6217325;28;97889;-74
2022/02/06 07:43:15;;;;;;;;;6.00;5.00;;;;;12.51;35.92;98355.69;6234236;28;99485;-73
2022/02/06 07:46:23;;;;;;;;;4.00;4.00;;;;;12.66;35.13;98355.09;6242129;27;98532;-73
2022/02/06 07:49:26;;;;;;;;;5.00;5.00;;;;;12.46;35.81;98359.09;6236703;28;97724;-74
2022/02/06 07:52:31;;;;;;;;;3.60;3.60;;;;;12.75;35.53;98346.31;6236280;28;99518;-73
2022/02/06 07:55:34;;;;;;;;;6.00;6.00;;;;;14.29;33.03;98332.38;6221240;28;97580;-73
2022/02/06 07:58:37;;;;;;;;;6.00;5.50;;;;;15.94;30.62;98336.19;6238219;28;96416;-73
2022/02/06 08:01:41;;;;;;;;;5.20;4.20;;;;;15.75;31.12;98326.09;6238020;27;98804;-73
2022/02/06 08:04:47;;;;;;;;;4.20;4.20;;;;;16.72;28.65;98330.50;6240470;28;98599;-73
2022/02/06 08:07:53;;;;;;;;;4.00;4.00;;;;;16.67;29.11;98334.06;6240795;28;100224;-73
2022/02/06 08:11:00;;;;;;;;;5.00;4.00;;;;;17.02;28.44;98311.38;6237860;28;97532;-73
2022/02/06 08:14:04;;;;;;;;;4.50;4.00;;;;;16.26;29.09;98306.06;6234348;28;97465;-73
2022/02/06 08:17:08;;;;;;;;;5.00;4.00;;;;;15.52;30.56;98322.81;6224268;28;98913;-73
2022/02/06 08:20:14;;;;;;;;;3.50;3.00;;;;;14.53;32.01;98303.00;6222221;28;98733;-72
2022/02/06 08:23:18;;;;;;;;;5.00;5.00;;;;;13.66;33.44;98327.72;6236197;27;97125;-72
2022/02/06 08:26:25;;;;;;;;;3.80;3.80;;;;;13.09;34.46;98336.22;6216258;28;97392;-72
2022/02/06 08:29:28;;;;;;;;;5.00;5.00;;;;;12.57;35.71;98331.16;6232850;28;97009;-72
2022/02/06 08:32:33;;;;;;;;;5.60;5.00;;;;;12.36;36.22;98326.53;6246052;27;98721;-72
2022/02/06 08:35:36;;;;;;;;;4.60;4.00;;;;;12.01;36.92;98326.78;6226732;27;97852;-73
2022/02/06 08:38:41;;;;;;;;;4.00;3.00;;;;;11.63;38.07;98329.31;6225542;28;96675;-73
2022/02/06 08:41:44;;;;;;;;;4.00;4.00;;;;;11.32;38.36;98308.19;6220807;28;97258;-73
2022/02/06 08:44:48;;;;;;;;;7.60;6.40;;;;;11.13;38.71;98327.25;6224959;28;97174;-73
2022/02/06 08:47:51;;;;;;;;;5.00;5.00;;;;;11.05;39.23;98324.91;6205050;28;97147;-73
2022/02/06 08:50:56;;;;;;;;;6.00;6.00;;;;;10.83;39.93;98324.72;6228324;28;98538;-72
2022/02/06 08:54:01;;;;;;;;;4.20;4.20;;;;;10.53;40.36;98326.75;6225293;28;97468;-72
2022/02/06 08:57:13;;;;;;;;;5.00;4.00;;;;;10.34;41.18;98327.91;6214505;28;99813;-72
2022/02/06 09:00:18;;;;;;;;;6.00;4.00;;;;;10.21;41.50;98317.38;6212756;28;98610;-72
2022/02/06 09:03:23;;;;;;;;;3.25;3.00;;;;;9.85;42.00;98304.88;6230846;27;97388;-72
2022/02/06 09:06:26;;;;;;;;;4.00;4.00;;;;;10.17;41.83;98314.31;6227213;27;97265;-72
2022/02/06 09:09:32;;;;;;;;;5.40;5.00;;;;;10.26;42.03;98315.59;6234438;28;96508;-72
2022/02/06 09:12:40;;;;;;;;;4.00;4.00;;;;;10.25;42.17;98307.75;6215563;27;97282;-72
2022/02/06 09:15:43;;;;;;;;;6.00;5.00;;;;;10.40;42.06;98303.56;6228270;27;100233;-73
2022/02/06 09:18:46;;;;;;;;;6.00;5.00;;;;;10.35;42.09;98298.06;6221804;27;96396;-74
2022/02/06 09:21:50;;;;;;;;;4.00;3.00;;;;;10.42;41.97;98298.72;6226438;27;97169;-73
2022/02/06 09:24:55;;;;;;;;;5.60;5.00;;;;;10.44;41.58;98279.66;6215709;28;97006;-73
2022/02/06 09:27:59;;;;;;;;;6.00;5.00;;;;;10.52;41.19;98281.97;6212565;28;98205;-74
2022/02/06 09:31:02;;;;;;;;;5.60;5.60;;;;;10.64;41.34;98273.88;6223322;28;98171;-72
2022/02/06 09:37:10;;;;;;;;;5.40;5.00;;;;;10.59;40.07;98274.59;6231621;28;97423;-72
2022/02/06 09:40:16;;;;;;;;;5.00;5.00;;;;;11.18;39.38;98265.31;6219156;28;97535;-72
2022/02/06 09:43:21;;;;;;;;;5.00;4.20;;;;;11.33;38.84;98267.47;6198720;28;99673;-73
2022/02/06 09:46:27;;;;;;;;;4.00;4.00;;;;;11.57;38.33;98263.59;6217188;28;98959;-72
2022/02/06 09:49:32;;;;;;;;;6.00;5.00;;;;;11.46;38.96;98260.94;6228095;27;98080;-74
2022/02/06 09:52:38;;;;;;;;;5.20;4.80;;;;;11.70;38.63;98263.28;6222786;28;96662;-72
2022/02/06 09:55:46;;;;;;;;;4.00;4.00;;;;;11.48;38.98;98248.84;6231838;28;96783;-73
2022/02/06 09:59:17;;;;;;;;;6.00;5.60;;;;;11.45;38.90;98254.72;6228154;28;97062;-73
2022/02/06 10:02:25;;;;;;;;;4.00;4.00;;;;;11.49;39.35;98219.97;6226759;27;97448;-73
2022/02/06 10:05:33;;;;;;;;;5.00;5.00;;;;;11.24;39.42;98177.97;6239507;27;96368;-72
2022/02/06 10:08:41;;;;;;;;;4.00;4.00;;;;;11.21;39.77;98213.53;6228339;28;97699;-74
2022/02/06 10:11:51;;;;;;;;;5.80;5.00;;;;;11.05;39.91;98208.09;6225149;27;96983;-72
2022/02/06 10:14:54;;;;;;;;;5.00;5.00;;;;;10.81;40.35;98204.66;6234242;27;98465;-72
2022/02/06 10:17:58;;;;;;;;;4.25;4.00;;;;;11.07;40.58;98214.09;6228603;28;97175;-73
2022/02/06 10:21:02;;;;;;;;;4.60;4.00;;;;;10.99;41.15;98201.81;6230673;27;96674;-73
2022/02/06 10:24:11;;;;;;;;;4.00;3.75;;;;;11.18;41.25;98199.72;6232212;27;97546;-74
2022/02/06 10:27:22;;;;;;;;;3.00;3.00;;;;;11.02;41.52;98209.41;6229644;27;97100;-72
2022/02/06 10:30:44;;;;;;;;;4.00;3.00;;;;;11.12;42.50;98198.00;6222489;28;98054;-74
2022/02/06 10:33:50;;;;;;;;;3.00;3.00;;;;;11.15;42.50;98182.13;6226978;28;97467;-73
2022/02/06 10:37:10;;;;;;;;;4.00;4.00;;;;;11.01;42.23;98172.69;6218383;28;99605;-73
2022/02/06 10:40:13;;;;;;;;;5.00;3.00;;;;;11.09;42.04;98156.13;6221904;28;96589;-74
2022/02/06 10:43:18;;;;;;;;;3.00;3.00;;;;;11.38;41.77;98164.19;6232378;28;96964;-74
2022/02/06 10:46:23;;;;;;;;;5.00;4.50;;;;;11.31;42.04;98140.06;6236179;27;96577;-74
2022/02/06 10:49:27;;;;;;;;;4.40;4.00;;;;;11.42;41.43;98132.94;6231527;28;96822;-74
2022/02/06 10:52:30;;;;;;;;;4.80;4.00;;;;;11.29;40.86;98124.09;6226950;27;97715;-74
2022/02/06 10:55:34;;;;;;;;;4.40;4.00;;;;;11.43;40.29;98127.31;6233945;27;96979;-74
2022/02/06 10:58:39;;;;;;;;;4.00;4.00;;;;;11.39;39.83;98115.34;6229267;28;96700;-73
2022/02/06 11:01:42;;;;;;;;;5.00;4.40;;;;;11.34;39.55;98109.06;6215996;28;98811;-72
2022/02/06 11:04:55;;;;;;;;;3.00;3.00;;;;;11.41;39.46;98094.34;6224078;28;97610;-73
2022/02/06 11:08:01;;;;;;;;;4.00;4.00;;;;;11.71;38.86;98097.50;6215883;28;97904;-72
2022/02/06 11:11:06;;;;;;;;;3.40;3.40;;;;;11.92;38.55;98092.44;6226334;27;97569;-74
2022/02/06 11:14:14;;;;;;;;;3.00;3.00;;;;;11.95;38.49;98084.63;6220435;27;97528;-75
2022/02/06 11:17:20;;;;;;;;;5.00;3.00;;;;;11.73;38.76;98088.38;6223108;28;96701;-76
2022/02/06 11:20:24;;;;;;;;;5.00;5.00;;;;;11.46;38.74;98042.31;6228187;27;98463;-73
2022/02/06 11:23:47;;;;;;;;;4.00;4.00;;;;;11.39;38.33;98042.47;6224064;28;98523;-74
2022/02/06 11:26:50;;;;;;;;;5.00;5.00;;;;;11.44;38.74;98034.47;6228559;28;97508;-72
2022/02/06 11:29:56;;;;;;;;;5.00;4.00;;;;;11.33;38.64;98013.81;6237477;27;97709;-73
2022/02/06 11:33:00;;;;;;;;;5.00;4.00;;;;;11.74;38.26;98063.81;6224696;28;97481;-75
2022/02/06 11:36:11;;;;;;;;;3.60;3.60;;;;;11.61;38.67;98048.75;6231891;28;96945;-74
2022/02/06 11:46:38;;;;;;;;;5.00;4.33;;;;;11.46;39.99;98050.41;6217503;27;96916;-73
2022/02/06 11:49:44;;;;;;;;;5.00;4.25;;;;;11.40;40.06;98044.13;6241067;27;98773;-73
2022/02/06 11:52:53;;;;;;;;;5.60;4.00;;;;;11.39;40.15;98047.88;6232992;27;98621;-76
2022/02/06 11:55:58;;;;;;;;;4.00;4.00;;;;;10.92;40.53;97968.41;6241370;27;96862;-75
2022/02/06 11:59:10;;;;;;;;;4.00;4.00;;;;;11.21;41.21;98048.16;6231017;28;97444;-73
2022/02/06 12:02:27;;;;;;;;;6.00;5.40;;;;;10.89;42.81;98039.81;6235194;28;97049;-74
2022/02/06 12:05:31;;;;;;;;;5.00;4.00;;;;;10.96;43.90;98028.84;6232552;28;97312;-74
2022/02/06 12:08:34;;;;;;;;;5.00;5.00;;;;;10.63;45.28;98041.25;6234620;28;96561;-75
2022/02/06 12:11:37;;;;;;;;;6.00;5.60;;;;;10.57;45.88;98017.97;6234853;28;96571;-73
2022/02/06 12:14:46;;;;;;;;;6.00;6.00;;;;;10.63;46.39;98030.47;6238689;28;96548;-74
2022/02/06 12:18:10;;;;;;;;;4.00;4.00;;;;;10.62;46.65;98023.44;6234544;28;96803;-74
2022/02/06 12:21:18;;;;;;;;;5.40;4.40;;;;;10.45;47.73;98030.69;6193339;28;98244;-74
2022/02/06 12:24:41;;;;;;;;;4.33;4.00;;;;;10.27;47.55;98028.16;6213725;28;97467;-76
2022/02/06 12:27:44;;;;;;;;;5.00;5.00;;;;;10.05;47.89;97974.13;6217903;28;97208;-72
2022/02/06 12:30:49;;;;;;;;;4.00;3.00;;;;;10.26;47.44;98013.88;6231476;28;96560;-72
2022/02/06 12:33:59;;;;;;;;;4.75;3.75;;;;;10.22;47.67;98007.34;6215229;28;97052;-77
2022/02/06 12:37:17;;;;;;;;;3.00;3.00;;;;;10.22;47.66;97998.44;6226591;27;97170;-73
2022/02/06 12:40:24;;;;;;;;;3.20;2.20;;;;;10.10;48.02;98017.31;6228442;28;96733;-75
2022/02/06 12:43:35;;;;;;;;;4.40;4.00;;;;;9.69;48.52;97967.22;6228498;27;96807;-73
2022/02/06 12:46:40;;;;;;;;;4.60;4.00;;;;;10.09;48.60;97993.31;6207385;28;97907;-74
2022/02/06 12:49:46;;;;;;;;;4.67;4.00;;;;;10.00;48.81;97982.13;6227668;28;98578;-75
2022/02/06 12:52:52;;;;;;;;;4.00;3.20;;;;;9.90;49.22;97984.63;6226581;28;98363;-73
2022/02/06 12:55:57;;;;;;;;;6.00;5.00;;;;;10.17;48.79;97976.78;6231530;28;97835;-73
2022/02/06 12:59:00;;;;;;;;;4.00;4.00;;;;;10.10;48.33;97976.13;6227513;28;96729;-73
2022/02/06 13:02:06;;;;;;;;;4.00;4.00;;;;;9.97;47.71;97950.28;6217899;27;97159;-73
2022/02/06 13:05:14;;;;;;;;;4.00;3.50;;;;;10.28;47.50;97970.53;6233025;28;97126;-72
2022/02/06 13:08:18;;;;;;;;;4.00;4.00;;;;;10.37;47.72;97956.44;6232105;28;97963;-76
2022/02/06 13:11:32;;;;;;;;;3.75;3.75;;;;;10.15;46.92;97912.38;6235448;28;96495;-73
2022/02/06 13:14:54;;;;;;;;;5.00;4.00;;;;;10.20;46.92;97934.06;6217765;27;98348;-75
2022/02/06 13:18:21;;;;;;;;;4.00;3.20;;;;;10.24;46.36;97942.47;6238411;28;96771;-76
2022/02/06 13:25:20;;;;;;;;;4.00;4.00;;;;;10.31;45.28;97889.25;6186825;28;99954;-74
2022/02/06 13:28:40;;;;;;;;;5.00;5.00;;;;;10.51;45.25;97908.44;6238259;28;96540;-73
2022/02/06 13:32:11;;;;;;;;;4.00;4.00;;;;;10.43;45.17;97906.16;6235678;27;97306;-76
2022/02/06 13:35:31;;;;;;;;;6.00;4.00;;;;;10.35;45.73;97890.41;6235838;28;96735;-73
2022/02/06 13:38:36;;;;;;;;;5.00;4.00;;;;;10.42;45.11;97885.66;6217904;28;98026;-75
2022/02/06 13:41:40;;;;;;;;;4.00;4.00;;;;;10.41;45.10;97881.31;6219631;28;96605;-73
2022/02/06 13:44:46;;;;;;;;;3.00;3.00;;;;;10.40;45.15;97890.50;6203501;27;97560;-75
2022/02/06 13:47:51;;;;;;;;;5.00;4.00;;;;;10.55;45.03;97882.66;6231520;28;99684;-73
2022/02/06 13:50:55;;;;;;;;;5.00;5.00;;;;;10.51;44.75;97878.78;6222850;28;97824;-75
2022/02/06 13:54:03;;;;;;;;;3.00;3.00;;;;;10.37;45.13;97872.09;6234941;28;99530;-74
2022/02/06 13:57:07;;;;;;;;;5.00;5.00;;;;;10.68;44.95;97870.72;6240303;28;97928;-73
2022/02/06 14:00:13;;;;;;;;;4.50;4.50;;;;;10.58;44.52;97889.41;6241431;28;97761;-73
2022/02/06 14:03:16;;;;;;;;;5.00;3.60;;;;;10.25;45.27;97871.38;6236984;27;97410;-73
2022/02/06 14:06:41;;;;;;;;;4.00;4.00;;;;;10.39;44.91;97870.00;6232903;28;96542;-76
2022/02/06 14:10:07;;;;;;;;;3.00;3.00;;;;;10.35;45.18;97866.97;6233640;27;98133;-73
2022/02/06 14:13:22;;;;;;;;;4.75;4.75;;;;;9.99;45.03;97808.97;6230657;28;97628;-74
2022/02/06 14:16:25;;;;;;;;;3.00;3.00;;;;;10.38;45.09;97847.63;6227771;28;97503;-73
2022/02/06 14:19:33;;;;;;;;;4.40;3.40;;;;;10.35;45.26;97836.53;6217481;28;99008;-74
2022/02/06 14:22:38;;;;;;;;;5.00;4.00;;;;;10.39;45.04;97843.03;6232841;28;96841;-74
2022/02/06 14:25:46;;;;;;;;;5.00;5.00;;;;;10.37;45.06;97842.47;6220529;28;99718;-76
2022/02/06 14:28:50;;;;;;;;;5.00;5.00;;;;;10.33;45.14;97830.56;6224258;28;97563;-76
2022/02/06 14:31:54;;;;;;;;;3.00;3.00;;;;;10.46;45.01;97840.19;6217989;27;97178;-76
2022/02/06 14:35:03;;;;;;;;;5.60;5.00;;;;;10.40;44.86;97817.75;6227960;28;98195;-72
2022/02/06 14:38:09;;;;;;;;;3.80;3.00;;;;;10.31;45.15;97824.63;6232058;28;97068;-72
2022/02/06 14:41:24;;;;;;;;;5.00;4.60;;;;;10.14;45.48;97827.25;6225798;28;97099;-75
2022/02/06 14:44:27;;;;;;;;;4.00;4.00;;;;;10.16;45.66;97835.97;6220174;28;97987;-74
2022/02/06 14:47:31;;;;;;;;;4.00;4.00;;;;;9.77;45.83;97762.31;6223302;28;97835;-72
2022/02/06 14:50:37;;;;;;;;;6.40;6.00;;;;;9.94;46.21;97822.34;6233813;27;97001;-74
2022/02/06 14:53:40;;;;;;;;;6.00;5.00;;;;;9.77;46.57;97799.19;6211825;28;99687;-76
2022/02/06 14:56:47;;;;;;;;;5.00;4.50;;;;;9.91;46.40;97805.88;6207480;28;98455;-74
2022/02/06 14:59:50;;;;;;;;;6.00;5.00;;;;;9.92;46.27;97780.59;6229412;28;96701;-73
2022/02/06 15:02:53;;;;;;;;;5.00;4.00;;;;;9.89;45.91;97781.88;6221791;28;97439;-73
2022/02/06 15:05:57;;;;;;;;;5.80;5.00;;;;;9.95;45.83;97770.16;6229042;28;96985;-73
2022/02/06 15:09:00;;;;;;;;;5.25;5.25;;;;;9.97;45.83;97772.56;6212906;28;97737;-75
2022/02/06 15:12:05;;;;;;;;;6.00;6.00;;;;;10.05;45.47;97769.50;6218651;28;99068;-77
2022/02/06 15:15:11;;;;;;;;;4.00;4.00;;;;;9.89;45.14;97719.16;6225916;28;97135;-76
2022/02/06 15:18:25;;;;;;;;;7.00;5.50;;;;;10.17;44.74;97753.25;6228478;28;96885;-76
2022/02/06 15:21:28;;;;;;;;;5.00;5.00;;;;;10.18;44.60;97738.75;6230429;28;97456;-74
2022/02/06 15:24:34;;;;;;;;;4.00;4.00;;;;;9.96;44.54;97731.41;6229519;28;96425;-73
2022/02/06 15:27:38;;;;;;;;;6.00;6.00;;;;;10.03;44.68;97709.69;6200746;28;98082;-74
2022/02/06 15:30:43;;;;;;;;;6.00;6.00;;;;;10.09;44.01;97697.94;6219643;28;98475;-73
2022/02/06 15:33:46;;;;;;;;;4.00;4.00;;;;;10.06;44.12;97703.00;6230021;28;97349;-74
2022/02/06 15:36:52;;;;;;;;;6.00;6.00;;;;;10.21;44.01;97693.28;6240300;27;96308;-76
2022/02/06 15:39:58;;;;;;;;;7.00;7.00;;;;;9.36;43.69;97542.94;6212689;28;98395;-74
2022/02/06 15:43:03;;;;;;;;;6.00;6.00;;;;;10.28;43.49;97685.00;6215847;28;97049;-73
2022/02/06 15:46:06;;;;;;;;;5.25;5.00;;;;;10.36;43.31;97698.88;6211679;28;96944;-76
2022/02/06 15:49:09;;;;;;;;;5.40;4.00;;;;;10.22;43.53;97680.63;6224724;28;97504;-73
2022/02/06 15:52:13;;;;;;;;;6.00;3.00;;;;;10.26;43.34;97674.47;6217337;28;97900;-74
2022/02/06 15:55:17;;;;;;;;;5.25;4.25;;;;;10.43;43.15;97675.25;6217360;27;96836;-73
2022/02/06 15:58:21;;;;;;;;;4.00;4.00;;;;;10.46;42.62;97652.38;6223347;28;97517;-72
2022/02/06 16:01:25;;;;;;;;;5.00;5.00;;;;;10.54;42.59;97659.22;6241662;27;97272;-73
2022/02/06 16:04:29;;;;;;;;;6.00;5.00;;;;;10.57;42.59;97650.63;6236318;28;96646;-73
2022/02/06 16:07:32;;;;;;;;;3.00;3.00;;;;;10.37;42.85;97652.00;6218919;27;96559;-74
2022/02/06 16:10:35;;;;;;;;;4.00;4.00;;;;;10.22;42.69;97635.66;6231581;28;96729;-74
2022/02/06 16:13:40;;;;;;;;;5.50;4.00;;;;;10.45;42.67;97639.19;6237630;28;98508;-76
2022/02/06 16:16:44;;;;;;;;;4.40;4.00;;;;;10.65;42.32;97624.03;6237009;28;96682;-75
2022/02/06 16:19:47;;;;;;;;;4.50;4.00;;;;;10.68;42.28;97628.13;6239341;28;97600;-73
2022/02/06 16:22:50;;;;;;;;;6.00;5.00;;;;;10.47;42.58;97619.00;6235528;28;97489;-72